createdAt,value
2016-11-19T00:00:46.583Z,15.35
2016-11-19T00:01:57.108Z,15.37
2016-11-19T00:03:07.735Z,15.37
2016-11-19T00:04:18.284Z,15.38
2016-11-19T00:05:28.808Z,15.44
2016-11-19T00:06:39.337Z,15.49
2016-11-19T00:07:49.860Z,15.41
2016-11-19T00:09:00.383Z,15.3
2016-11-19T00:10:10.907Z,15.37
2016-11-19T00:11:21.432Z,15.48
2016-11-19T00:12:31.962Z,15.37
2016-11-19T00:13:42.489Z,15.31
2016-11-19T00:14:53.215Z,15.25
2016-11-19T00:16:03.744Z,15.19
2016-11-19T00:17:14.276Z,15.2
2016-11-19T00:18:24.799Z,15.2
2016-11-19T00:19:49.846Z,15.31
2016-11-19T00:21:00.371Z,15.31
2016-11-19T00:22:10.899Z,15.27
2016-11-19T00:23:21.421Z,15.27
2016-11-19T00:24:31.945Z,15.27
2016-11-19T00:27:07.726Z,15.16
2016-11-19T00:28:18.247Z,15.33
2016-11-19T00:29:28.776Z,15.22
2016-11-19T00:30:39.375Z,15.2
2016-11-19T00:32:04.427Z,15.16
2016-11-19T00:33:15.450Z,15.23
2016-11-19T00:34:25.972Z,15.27
2016-11-19T00:35:36.499Z,15.23
2016-11-19T00:36:47.226Z,15.25
2016-11-19T00:38:12.277Z,15.25
2016-11-19T00:39:22.800Z,15.25
2016-11-19T00:40:33.330Z,15.33
2016-11-19T00:41:44.059Z,15.37
2016-11-19T00:42:54.583Z,15.31
2016-11-19T00:44:05.109Z,15.31
2016-11-19T00:45:15.656Z,15.31
2016-11-19T00:46:26.184Z,15.27
2016-11-19T00:47:36.705Z,15.22
2016-11-19T00:48:47.232Z,15.3
2016-11-19T00:49:57.756Z,15.34
2016-11-19T00:51:08.313Z,15.35
2016-11-19T00:52:18.839Z,15.37
2016-11-19T00:53:29.363Z,15.38
2016-11-19T00:54:39.886Z,15.37
2016-11-19T00:55:50.418Z,15.41
2016-11-19T00:57:00.943Z,15.46
2016-11-19T00:58:11.467Z,15.46
2016-11-19T00:59:22.026Z,15.49
2016-11-19T01:00:32.551Z,15.48
2016-11-19T01:01:43.108Z,15.37
2016-11-19T01:02:53.668Z,15.38
2016-11-19T01:04:18.816Z,15.3
2016-11-19T01:05:29.342Z,15.23
2016-11-19T01:06:39.873Z,15.33
2016-11-19T01:07:50.396Z,15.2
2016-11-19T01:09:00.923Z,15.04
2016-11-19T01:10:11.650Z,15.05
2016-11-19T01:11:22.172Z,15.03
2016-11-19T01:12:32.696Z,14.94
2016-11-19T01:13:43.221Z,15.01
2016-11-19T01:14:53.746Z,15.01
2016-11-19T01:16:04.380Z,15
2016-11-19T01:17:14.902Z,15.09
2016-11-19T01:18:25.429Z,15.09
2016-11-19T01:19:35.897Z,14.97
2016-11-19T01:20:46.334Z,15.05
2016-11-19T01:21:56.965Z,15.09
2016-11-19T01:23:07.415Z,15.05
2016-11-19T01:24:17.850Z,15.09
2016-11-19T01:25:28.280Z,15.04
2016-11-19T01:26:38.716Z,15.13
2016-11-19T01:27:49.351Z,15.23
2016-11-19T01:28:59.788Z,15.28
2016-11-19T01:30:10.218Z,15.19
2016-11-19T01:31:20.653Z,15.16
2016-11-19T01:32:31.086Z,15.18
2016-11-19T01:33:41.521Z,15.04
2016-11-19T01:34:51.956Z,15.04
2016-11-19T01:36:02.419Z,15.03
2016-11-19T01:37:12.859Z,15
2016-11-19T01:38:23.300Z,15.01
2016-11-19T01:39:33.937Z,14.95
2016-11-19T01:40:44.371Z,15.05
2016-11-19T01:41:54.805Z,15.05
2016-11-19T01:43:05.241Z,15.01
2016-11-19T01:44:15.669Z,15.09
2016-11-19T01:45:26.107Z,14.98
2016-11-19T01:46:36.543Z,14.97
2016-11-19T01:48:01.521Z,14.98
2016-11-19T01:49:11.955Z,14.9
2016-11-19T01:50:22.594Z,14.94
2016-11-19T01:51:33.029Z,14.87
2016-11-19T01:52:43.461Z,14.83
2016-11-19T01:53:53.906Z,14.93
2016-11-19T01:55:04.338Z,14.9
2016-11-19T01:56:14.981Z,14.9
2016-11-19T01:57:25.904Z,14.86
2016-11-19T01:58:36.339Z,14.91
2016-11-19T01:59:46.776Z,14.97
2016-11-19T02:00:57.210Z,14.97
2016-11-19T02:02:07.845Z,14.97
2016-11-19T02:03:18.279Z,14.97
2016-11-19T02:04:28.764Z,15.01
2016-11-19T02:05:39.294Z,14.97
2016-11-19T02:06:49.816Z,15.04
2016-11-19T02:08:00.545Z,15.05
2016-11-19T02:09:11.070Z,15.04
2016-11-19T02:11:46.639Z,15.04
2016-11-19T02:12:57.367Z,14.98
2016-11-19T02:14:07.919Z,14.98
2016-11-19T02:15:18.953Z,15.03
2016-11-19T02:16:29.477Z,14.86
2016-11-19T02:17:40.004Z,14.79
2016-11-19T02:18:50.725Z,14.85
2016-11-19T02:21:26.305Z,14.71
2016-11-19T02:22:36.830Z,14.78
2016-11-19T02:23:47.621Z,14.72
2016-11-19T02:24:58.148Z,14.72
2016-11-19T02:26:08.673Z,14.67
2016-11-19T02:27:19.195Z,14.69
2016-11-19T02:28:29.715Z,14.78
2016-11-19T02:29:40.166Z,14.86
2016-11-19T02:30:50.616Z,14.79
2016-11-19T02:32:01.062Z,14.9
2016-11-19T02:33:11.507Z,14.9
2016-11-19T02:34:21.957Z,14.9
2016-11-19T02:35:32.414Z,14.86
2016-11-19T02:36:42.859Z,14.8
2016-11-19T02:37:53.305Z,14.9
2016-11-19T02:39:03.756Z,14.83
2016-11-19T02:40:14.200Z,14.85
2016-11-19T02:41:39.190Z,14.82
2016-11-19T02:42:49.640Z,14.82
2016-11-19T02:44:14.631Z,14.85
2016-11-19T02:45:25.080Z,14.83
2016-11-19T02:46:35.475Z,14.82
2016-11-19T02:47:45.807Z,14.8
2016-11-19T02:48:56.610Z,14.86
2016-11-19T02:50:06.932Z,14.86
2016-11-19T02:51:17.262Z,14.8
2016-11-19T02:52:27.588Z,14.86
2016-11-19T02:53:37.914Z,14.8
2016-11-19T02:54:48.237Z,14.82
2016-11-19T02:55:58.570Z,14.8
2016-11-19T02:57:08.901Z,14.8
2016-11-19T02:58:19.431Z,14.8
2016-11-19T02:59:29.758Z,14.87
2016-11-19T03:00:40.084Z,14.79
2016-11-19T03:01:50.411Z,14.82
2016-11-19T03:03:00.740Z,14.87
2016-11-19T03:04:11.069Z,14.85
2016-11-19T03:05:21.394Z,14.83
2016-11-19T03:06:46.284Z,14.9
2016-11-19T03:07:56.612Z,14.87
2016-11-19T03:09:06.935Z,14.79
2016-11-19T03:10:17.254Z,14.85
2016-11-19T03:11:42.138Z,14.8
2016-11-19T03:12:52.454Z,14.87
2016-11-19T03:14:02.767Z,14.82
2016-11-19T03:15:13.283Z,14.82
2016-11-19T03:16:23.595Z,14.8
2016-11-19T03:17:34.395Z,14.86
2016-11-19T03:18:44.714Z,14.75
2016-11-19T03:19:55.260Z,14.67
2016-11-19T03:21:05.572Z,14.74
2016-11-19T03:22:30.450Z,14.69
2016-11-19T03:23:55.333Z,14.83
2016-11-19T03:25:05.651Z,14.86
2016-11-19T03:27:40.849Z,14.63
2016-11-19T03:28:51.162Z,14.69
2016-11-19T03:30:01.709Z,14.8
2016-11-19T03:31:12.027Z,14.79
2016-11-19T03:32:22.360Z,14.86
2016-11-19T03:33:32.674Z,14.9
2016-11-19T03:34:42.985Z,14.8
2016-11-19T03:35:53.502Z,14.83
2016-11-19T03:37:03.821Z,14.85
2016-11-19T03:38:14.138Z,14.69
2016-11-19T03:39:24.448Z,14.71
2016-11-19T03:40:34.764Z,14.74
2016-11-19T03:41:45.082Z,14.8
2016-11-19T03:42:55.399Z,14.85
2016-11-19T03:44:05.709Z,14.78
2016-11-19T03:45:16.020Z,14.71
2016-11-19T03:46:26.334Z,14.74
2016-11-19T03:47:36.847Z,14.75
2016-11-19T03:48:47.160Z,14.71
2016-11-19T03:49:57.472Z,14.85
2016-11-19T03:51:07.783Z,14.74
2016-11-19T03:52:18.103Z,14.78
2016-11-19T03:53:28.619Z,14.82
2016-11-19T03:54:38.937Z,14.87
2016-11-19T03:56:03.828Z,14.83
2016-11-19T03:57:14.154Z,14.82
2016-11-19T03:58:24.678Z,14.82
2016-11-19T03:59:35.011Z,14.83
2016-11-19T04:00:45.335Z,14.8
2016-11-19T04:01:55.665Z,14.85
2016-11-19T04:03:05.992Z,14.82
2016-11-19T04:04:16.315Z,14.91
2016-11-19T04:05:26.642Z,14.86
2016-11-19T04:06:36.978Z,14.8
2016-11-19T04:07:47.312Z,14.8
2016-11-19T04:08:57.640Z,14.78
2016-11-19T04:10:08.218Z,14.85
2016-11-19T04:11:18.542Z,14.8
2016-11-19T04:12:28.862Z,14.8
2016-11-19T04:13:39.190Z,14.79
2016-11-19T04:14:49.517Z,14.83
2016-11-19T04:16:00.324Z,14.82
2016-11-19T04:17:10.649Z,14.79
2016-11-19T04:18:20.973Z,14.86
2016-11-19T04:19:31.302Z,14.83
2016-11-19T04:20:41.625Z,14.86
2016-11-19T04:21:52.149Z,14.83
2016-11-19T04:23:02.472Z,14.83
2016-11-19T04:24:12.795Z,14.93
2016-11-19T04:25:23.120Z,14.85
2016-11-19T04:26:33.478Z,14.95
2016-11-19T04:27:44.001Z,15.03
2016-11-19T04:28:54.324Z,14.95
2016-11-19T04:30:04.650Z,14.87
2016-11-19T04:31:14.976Z,14.83
2016-11-19T04:32:25.300Z,14.75
2016-11-19T04:33:35.826Z,14.8
2016-11-19T04:34:46.151Z,14.79
2016-11-19T04:35:56.476Z,14.72
2016-11-19T04:37:06.801Z,14.75
2016-11-19T04:38:17.130Z,14.71
2016-11-19T04:39:27.661Z,14.69
2016-11-19T04:40:37.975Z,14.66
2016-11-19T04:41:48.287Z,14.66
2016-11-19T04:42:58.605Z,14.69
2016-11-19T04:44:08.920Z,14.63
2016-11-19T04:45:33.998Z,14.72
2016-11-19T04:46:44.317Z,14.67
2016-11-19T04:47:54.635Z,14.66
2016-11-19T04:49:04.983Z,14.66
2016-11-19T04:50:15.293Z,14.63
2016-11-19T04:51:25.608Z,14.69
2016-11-19T04:52:35.928Z,14.69
2016-11-19T04:53:46.240Z,14.66
2016-11-19T04:54:56.561Z,14.64
2016-11-19T04:56:06.874Z,14.64
2016-11-19T04:57:17.192Z,14.59
2016-11-19T04:58:27.505Z,14.64
2016-11-19T04:59:37.817Z,14.74
2016-11-19T05:00:48.158Z,14.66
2016-11-19T05:01:58.481Z,14.66
2016-11-19T05:03:08.992Z,14.69
2016-11-19T05:04:19.306Z,14.67
2016-11-19T05:05:29.627Z,14.67
2016-11-19T05:06:39.941Z,14.63
2016-11-19T05:07:50.254Z,14.49
2016-11-19T05:09:00.766Z,14.53
2016-11-19T05:10:11.081Z,14.49
2016-11-19T05:11:21.398Z,14.46
2016-11-19T05:12:31.710Z,14.57
2016-11-19T05:13:42.057Z,14.49
2016-11-19T05:14:52.570Z,14.48
2016-11-19T05:16:02.885Z,14.52
2016-11-19T05:17:13.198Z,14.53
2016-11-19T05:18:23.517Z,14.49
2016-11-19T05:19:33.835Z,14.46
2016-11-19T05:20:44.152Z,14.41
2016-11-19T05:21:54.462Z,14.41
2016-11-19T05:23:04.784Z,14.45
2016-11-19T05:24:15.098Z,14.35
2016-11-19T05:25:25.411Z,14.41
2016-11-19T05:26:35.925Z,14.44
2016-11-19T05:27:46.238Z,14.45
2016-11-19T05:28:56.554Z,14.49
2016-11-19T05:30:06.867Z,14.46
2016-11-19T05:31:17.185Z,14.46
2016-11-19T05:32:27.742Z,14.52
2016-11-19T05:33:38.061Z,14.57
2016-11-19T05:34:48.373Z,14.49
2016-11-19T05:35:58.686Z,14.44
2016-11-19T05:37:23.566Z,14.52
2016-11-19T05:38:33.878Z,14.44
2016-11-19T05:39:44.191Z,14.38
2016-11-19T05:40:54.506Z,14.45
2016-11-19T05:42:04.826Z,14.46
2016-11-19T05:43:15.340Z,14.44
2016-11-19T05:44:25.651Z,14.46
2016-11-19T05:45:35.967Z,14.48
2016-11-19T05:46:46.309Z,14.36
2016-11-19T05:47:56.626Z,14.39
2016-11-19T05:49:07.970Z,14.44
2016-11-19T05:50:18.278Z,14.41
2016-11-19T05:51:28.596Z,14.41
2016-11-19T05:52:38.917Z,14.53
2016-11-19T05:53:49.233Z,14.45
2016-11-19T05:56:24.524Z,14.46
2016-11-19T05:57:34.833Z,14.48
2016-11-19T05:58:59.713Z,14.52
2016-11-19T06:00:10.227Z,14.54
2016-11-19T06:01:20.569Z,14.57
2016-11-19T06:02:30.899Z,14.6
2016-11-19T06:03:41.215Z,14.6
2016-11-19T06:04:51.534Z,14.6
2016-11-19T06:06:01.978Z,14.63
2016-11-19T06:07:12.288Z,14.56
2016-11-19T06:08:23.079Z,14.63
2016-11-19T06:09:33.392Z,14.53
2016-11-19T06:10:43.706Z,14.46
2016-11-19T06:11:54.038Z,14.52
2016-11-19T06:13:04.409Z,14.53
2016-11-19T06:14:14.843Z,14.56
2016-11-19T06:15:25.274Z,14.63
2016-11-19T06:16:35.708Z,14.56
2016-11-19T06:17:46.336Z,14.56
2016-11-19T06:18:56.768Z,14.56
2016-11-19T06:20:07.221Z,14.46
2016-11-19T06:21:17.660Z,14.48
2016-11-19T06:22:28.124Z,14.49
2016-11-19T06:23:38.662Z,14.53
2016-11-19T06:24:49.094Z,14.53
2016-11-19T06:27:24.537Z,14.56
2016-11-19T06:28:34.966Z,14.61
2016-11-19T06:29:45.403Z,14.52
2016-11-19T06:30:55.835Z,14.49
2016-11-19T06:32:06.267Z,14.57
2016-11-19T06:33:16.701Z,14.56
2016-11-19T06:34:27.313Z,14.52
2016-11-19T06:35:37.838Z,14.46
2016-11-19T06:36:48.362Z,14.57
2016-11-19T06:38:13.417Z,14.53
2016-11-19T06:39:23.939Z,14.64
2016-11-19T06:40:34.460Z,14.59
2016-11-19T06:41:44.984Z,14.64
2016-11-19T06:42:55.507Z,14.6
2016-11-19T06:44:06.029Z,14.64
2016-11-19T06:45:16.553Z,14.66
2016-11-19T06:46:41.603Z,14.69
2016-11-19T06:47:52.132Z,14.72
2016-11-19T06:49:03.190Z,14.69
2016-11-19T06:50:13.813Z,14.67
2016-11-19T06:51:24.348Z,14.63
2016-11-19T06:52:34.869Z,14.69
2016-11-19T06:53:45.393Z,14.66
2016-11-19T06:54:55.917Z,14.71
2016-11-19T06:56:06.540Z,14.66
2016-11-19T06:57:17.066Z,14.83
2016-11-19T06:58:27.587Z,14.75
2016-11-19T06:59:38.112Z,14.78
2016-11-19T07:00:48.642Z,14.85
2016-11-19T07:01:59.269Z,14.72
2016-11-19T07:03:09.833Z,14.74
2016-11-19T07:04:20.364Z,14.78
2016-11-19T07:05:30.888Z,14.71
2016-11-19T07:06:41.440Z,14.67
2016-11-19T07:07:52.092Z,14.67
2016-11-19T07:09:02.614Z,14.63
2016-11-19T07:10:13.142Z,14.8
2016-11-19T07:11:23.669Z,14.86
2016-11-19T07:12:34.190Z,14.85
2016-11-19T07:13:44.712Z,14.8
2016-11-19T07:14:55.237Z,14.95
2016-11-19T07:16:05.759Z,14.98
2016-11-19T07:17:16.285Z,14.97
2016-11-19T07:18:26.808Z,14.98
2016-11-19T07:19:37.278Z,15.04
2016-11-19T07:20:47.712Z,15.04
2016-11-19T07:21:58.140Z,15.11
2016-11-19T07:23:08.587Z,15.09
2016-11-19T07:24:19.019Z,15.04
2016-11-19T07:25:29.460Z,15.11
2016-11-19T07:26:39.894Z,15.05
2016-11-19T07:28:04.867Z,15.07
2016-11-19T07:29:29.837Z,15.09
2016-11-19T07:30:40.268Z,15.15
2016-11-19T07:31:50.703Z,15.09
2016-11-19T07:33:01.136Z,15.09
2016-11-19T07:34:12.060Z,15.09
2016-11-19T07:35:22.493Z,15.05
2016-11-19T07:36:32.924Z,15.03
2016-11-19T07:37:43.362Z,15.05
2016-11-19T07:38:53.793Z,14.98
2016-11-19T07:40:04.225Z,15.04
2016-11-19T07:41:14.665Z,14.91
2016-11-19T07:42:25.196Z,14.94
2016-11-19T07:43:35.657Z,14.85
2016-11-19T07:44:46.089Z,14.87
2016-11-19T07:45:56.519Z,14.82
2016-11-19T07:47:06.958Z,15.03
2016-11-19T07:48:17.487Z,14.82
2016-11-19T07:49:27.921Z,14.85
2016-11-19T07:50:38.356Z,14.83
2016-11-19T07:51:48.792Z,14.82
2016-11-19T07:52:59.227Z,14.74
2016-11-19T07:54:09.763Z,14.8
2016-11-19T07:55:20.197Z,14.83
2016-11-19T07:56:30.626Z,14.79
2016-11-19T07:57:41.058Z,14.79
2016-11-19T07:58:51.488Z,14.66
2016-11-19T08:00:16.461Z,14.66
2016-11-19T08:01:26.896Z,14.72
2016-11-19T08:02:37.327Z,14.75
2016-11-19T08:03:47.764Z,14.85
2016-11-19T08:04:58.459Z,14.8
2016-11-19T08:06:08.983Z,14.87
2016-11-19T08:07:19.513Z,14.9
2016-11-19T08:08:30.073Z,14.95
2016-11-19T08:09:40.594Z,14.95
2016-11-19T08:10:51.127Z,14.94
2016-11-19T08:12:01.654Z,14.98
2016-11-19T08:13:12.180Z,14.98
2016-11-19T08:14:22.706Z,15.04
2016-11-19T08:15:33.228Z,14.98
2016-11-19T08:16:43.950Z,15.04
2016-11-19T08:17:54.472Z,15
2016-11-19T08:19:04.997Z,15.12
2016-11-19T08:20:15.530Z,14.97
2016-11-19T08:21:26.055Z,15.07
2016-11-19T08:22:36.579Z,15.04
2016-11-19T08:23:47.601Z,15.03
2016-11-19T08:24:58.122Z,15.04
2016-11-19T08:26:08.682Z,14.97
2016-11-19T08:27:19.215Z,15
2016-11-19T08:28:29.740Z,15.03
2016-11-19T08:29:40.267Z,14.95
2016-11-19T08:30:50.789Z,15.01
2016-11-19T08:33:26.364Z,15.03
2016-11-19T08:34:36.891Z,15.07
2016-11-19T08:35:47.418Z,15.04
2016-11-19T08:36:57.945Z,15.07
2016-11-19T08:38:08.504Z,15.13
2016-11-19T08:39:19.128Z,15.01
2016-11-19T08:40:29.659Z,15.09
2016-11-19T08:41:40.183Z,15.07
2016-11-19T08:42:50.711Z,15.15
2016-11-19T08:44:01.273Z,15.09
2016-11-19T08:45:11.899Z,15.15
2016-11-19T08:46:22.426Z,15.11
2016-11-19T08:47:32.954Z,15.13
2016-11-19T08:48:43.476Z,15.05
2016-11-19T08:49:54.006Z,15.12
2016-11-19T08:51:04.732Z,15.04
2016-11-19T08:52:15.256Z,15.03
2016-11-19T08:53:25.786Z,15.03
2016-11-19T08:56:01.362Z,15.05
2016-11-19T08:57:26.411Z,15.04
2016-11-19T08:58:36.936Z,15.12
2016-11-19T08:59:47.459Z,15.2
2016-11-19T09:00:57.984Z,15.18
2016-11-19T09:02:08.717Z,15.16
2016-11-19T09:03:19.247Z,15.15
2016-11-19T09:06:09.581Z,15.23
2016-11-19T09:07:20.107Z,15.31
2016-11-19T09:08:30.630Z,15.41
2016-11-19T09:09:41.152Z,15.37
2016-11-19T09:10:51.677Z,15.44
2016-11-19T09:12:02.236Z,15.4
2016-11-19T09:13:12.766Z,15.46
2016-11-19T09:14:23.318Z,15.37
2016-11-19T09:15:33.850Z,15.35
2016-11-19T09:16:44.375Z,15.41
2016-11-19T09:18:09.524Z,15.37
2016-11-19T09:19:20.050Z,15.53
2016-11-19T09:20:30.574Z,15.43
2016-11-19T09:21:41.099Z,15.48
2016-11-19T09:22:52.223Z,15.43
2016-11-19T09:24:02.749Z,15.52
2016-11-19T09:25:13.277Z,15.55
2016-11-19T09:26:23.801Z,15.6
2016-11-19T09:27:34.355Z,15.58
2016-11-19T09:28:45.078Z,15.62
2016-11-19T09:29:55.610Z,15.56
2016-11-19T09:31:06.162Z,15.55
2016-11-19T09:32:16.688Z,15.38
2016-11-19T09:33:27.711Z,15.49
2016-11-19T09:34:38.331Z,15.31
2016-11-19T09:35:48.854Z,15.37
2016-11-19T09:36:59.377Z,15.31
2016-11-19T09:38:09.906Z,15.38
2016-11-19T09:39:20.428Z,15.3
2016-11-19T09:40:31.155Z,15.28
2016-11-19T09:41:41.677Z,15.27
2016-11-19T09:42:52.199Z,15.22
2016-11-19T09:44:02.720Z,15.19
2016-11-19T09:45:13.244Z,15
2016-11-19T09:46:23.772Z,15.07
2016-11-19T09:47:34.296Z,15.07
2016-11-19T09:48:44.819Z,15.11
2016-11-19T09:49:55.338Z,14.98
2016-11-19T09:51:05.861Z,14.98
2016-11-19T09:52:16.388Z,14.83
2016-11-19T09:53:26.909Z,15.01
2016-11-19T09:54:37.427Z,15.01
2016-11-19T09:55:47.953Z,14.98
2016-11-19T09:56:58.479Z,14.93
2016-11-19T09:58:09.009Z,14.86
2016-11-19T09:59:19.530Z,14.83
2016-11-19T10:00:30.060Z,14.8
2016-11-19T10:01:40.583Z,14.93
2016-11-19T10:02:51.135Z,14.83
2016-11-19T10:04:01.660Z,14.83
2016-11-19T10:05:12.188Z,14.8
2016-11-19T10:06:22.733Z,14.8
2016-11-19T10:07:33.254Z,14.9
2016-11-19T10:08:43.777Z,14.95
2016-11-19T10:09:54.399Z,14.95
2016-11-19T10:11:04.922Z,14.97
2016-11-19T10:12:15.447Z,14.97
2016-11-19T10:13:25.970Z,14.91
2016-11-19T10:14:36.492Z,14.93
2016-11-19T10:15:47.213Z,14.98
2016-11-19T10:17:12.263Z,14.94
2016-11-19T10:18:22.788Z,15.03
2016-11-19T10:19:33.254Z,14.9
2016-11-19T10:20:43.682Z,14.8
2016-11-19T10:21:54.117Z,14.71
2016-11-19T10:23:04.548Z,14.69
2016-11-19T10:24:14.976Z,14.85
2016-11-19T10:25:25.411Z,14.71
2016-11-19T10:26:35.847Z,14.63
2016-11-19T10:27:46.282Z,14.72
2016-11-19T10:29:11.259Z,14.66
2016-11-19T10:30:21.688Z,14.71
2016-11-19T10:31:32.220Z,14.69
2016-11-19T10:32:42.646Z,14.64
2016-11-19T10:33:53.074Z,14.72
2016-11-19T10:35:32.589Z,14.69
2016-11-19T10:36:57.564Z,14.66
2016-11-19T10:38:07.994Z,14.67
2016-11-19T10:39:18.427Z,14.67
2016-11-19T10:40:28.858Z,14.79
2016-11-19T10:41:39.288Z,14.67
2016-11-19T10:42:49.721Z,14.67
2016-11-19T10:44:00.154Z,14.82
2016-11-19T10:45:10.586Z,14.8
2016-11-19T10:46:21.058Z,14.83
2016-11-19T10:47:31.489Z,14.82
2016-11-19T10:48:41.919Z,15
2016-11-19T10:49:52.351Z,15.03
2016-11-19T10:51:02.781Z,15
2016-11-19T10:52:13.212Z,15
2016-11-19T10:53:24.139Z,15.07
2016-11-19T10:54:34.572Z,15.23
2016-11-19T10:55:45.014Z,15.31
2016-11-19T10:56:55.442Z,15.35
2016-11-19T10:58:05.876Z,15.44
2016-11-19T10:59:31.058Z,15.43
2016-11-19T11:00:41.487Z,15.4
2016-11-19T11:01:51.928Z,15.41
2016-11-19T11:03:02.379Z,15.58
2016-11-19T11:04:12.809Z,15.58
2016-11-19T11:05:23.270Z,15.56
2016-11-19T11:06:33.699Z,15.55
2016-11-19T11:07:44.134Z,15.51
2016-11-19T11:08:54.570Z,15.62
2016-11-19T11:10:05.001Z,15.67
2016-11-19T11:11:15.532Z,15.81
2016-11-19T11:12:25.965Z,15.95
2016-11-19T11:13:36.396Z,15.81
2016-11-19T11:14:46.829Z,15.89
2016-11-19T11:15:57.263Z,15.88
2016-11-19T11:17:07.696Z,15.74
2016-11-19T11:18:18.125Z,15.7
2016-11-19T11:19:28.556Z,15.67
2016-11-19T11:20:38.988Z,15.67
2016-11-19T11:22:04.166Z,15.77
2016-11-19T11:23:14.601Z,15.8
2016-11-19T11:24:25.031Z,15.71
2016-11-19T11:25:35.460Z,15.66
2016-11-19T11:26:45.892Z,15.7
2016-11-19T11:27:56.332Z,15.68
2016-11-19T11:29:06.763Z,15.6
2016-11-19T11:30:17.194Z,15.56
2016-11-19T11:31:42.174Z,15.56
2016-11-19T11:32:52.821Z,15.56
2016-11-19T11:34:03.259Z,15.6
2016-11-19T11:35:13.695Z,15.52
2016-11-19T11:36:24.128Z,15.49
2016-11-19T11:37:34.561Z,15.51
2016-11-19T11:38:59.535Z,15.4
2016-11-19T11:40:09.965Z,15.33
2016-11-19T11:41:20.398Z,15.34
2016-11-19T11:42:30.829Z,15.49
2016-11-19T11:43:41.484Z,15.48
2016-11-19T11:44:51.921Z,15.38
2016-11-19T11:46:02.350Z,15.51
2016-11-19T11:47:12.779Z,15.46
2016-11-19T11:48:23.209Z,15.62
2016-11-19T11:49:33.640Z,15.67
2016-11-19T11:50:44.073Z,15.64
2016-11-19T11:53:34.057Z,15.81
2016-11-19T11:54:44.494Z,15.85
2016-11-19T11:55:54.932Z,15.88
2016-11-19T11:57:05.362Z,15.92
2016-11-19T11:58:15.822Z,15.88
2016-11-19T11:59:26.255Z,15.85
2016-11-19T12:00:36.686Z,15.85
2016-11-19T12:01:47.123Z,15.77
2016-11-19T12:02:58.048Z,15.74
2016-11-19T12:04:08.480Z,15.88
2016-11-19T12:05:18.912Z,15.99
2016-11-19T12:06:29.442Z,16.16
2016-11-19T12:07:39.876Z,16.42
2016-11-19T12:08:50.309Z,16.67
2016-11-19T12:10:00.742Z,16.92
2016-11-19T12:11:11.172Z,16.96
2016-11-19T12:12:21.610Z,17.28
2016-11-19T12:13:32.043Z,17.54
2016-11-19T12:14:42.473Z,17.84
2016-11-19T12:15:52.915Z,18.09
2016-11-19T12:17:03.358Z,18.21
2016-11-19T12:18:13.796Z,18.36
2016-11-19T12:19:24.251Z,18.36
2016-11-19T12:20:34.684Z,18.44
2016-11-19T12:21:45.119Z,18.39
2016-11-19T12:22:55.551Z,18.56
2016-11-19T12:24:05.986Z,18.72
2016-11-19T12:25:16.424Z,18.86
2016-11-19T12:26:26.869Z,18.66
2016-11-19T12:27:37.801Z,18.38
2016-11-19T12:28:48.230Z,18.39
2016-11-19T12:29:58.867Z,18.39
2016-11-19T12:31:23.843Z,18.17
2016-11-19T12:32:34.278Z,18.04
2016-11-19T12:33:44.718Z,18.01
2016-11-19T12:34:55.209Z,17.87
2016-11-19T12:36:20.263Z,17.53
2016-11-19T12:37:30.793Z,17.49
2016-11-19T12:38:41.319Z,17.33
2016-11-19T12:39:51.872Z,17.3
2016-11-19T12:41:02.397Z,17.25
2016-11-19T12:43:37.983Z,17.18
2016-11-19T12:44:48.507Z,17.24
2016-11-19T12:45:59.129Z,17.45
2016-11-19T12:47:09.681Z,17.71
2016-11-19T12:48:20.208Z,18.19
2016-11-19T12:49:30.735Z,18.56
2016-11-19T12:50:55.790Z,18.76
2016-11-19T12:52:06.316Z,18.64
2016-11-19T12:53:16.851Z,18.71
2016-11-19T12:54:27.407Z,18.91
2016-11-19T12:55:37.930Z,19.02
2016-11-19T12:56:48.459Z,19.24
2016-11-19T12:57:58.981Z,19.49
2016-11-19T12:59:09.507Z,19.79
2016-11-19T13:00:20.032Z,19.79
2016-11-19T13:01:30.559Z,19.82
2016-11-19T13:02:41.082Z,19.75
2016-11-19T13:03:51.608Z,19.65
2016-11-19T13:05:02.167Z,19.5
2016-11-19T13:06:12.693Z,19.15
2016-11-19T13:07:23.224Z,19.06
2016-11-19T13:08:33.779Z,19.05
2016-11-19T13:09:44.306Z,19.09
2016-11-19T13:10:55.341Z,18.86
2016-11-19T13:12:05.860Z,18.65
2016-11-19T13:13:16.268Z,18.54
2016-11-19T13:14:26.681Z,18.6
2016-11-19T13:15:37.093Z,18.54
2016-11-19T13:16:47.502Z,18.49
2016-11-19T13:17:57.912Z,18.46
2016-11-19T13:19:22.974Z,18.21
2016-11-19T13:20:33.381Z,18.14
2016-11-19T13:21:43.791Z,18.14
2016-11-19T13:22:54.197Z,18.35
2016-11-19T13:24:04.610Z,18.66
2016-11-19T13:25:15.020Z,19.12
2016-11-19T13:26:25.430Z,19.28
2016-11-19T13:27:35.835Z,19.47
2016-11-19T13:28:46.240Z,19.61
2016-11-19T13:29:56.646Z,19.85
2016-11-19T13:31:07.157Z,19.94
2016-11-19T13:32:17.567Z,19.9
2016-11-19T13:33:27.979Z,19.78
2016-11-19T13:34:38.386Z,19.86
2016-11-19T13:35:49.287Z,19.97
2016-11-19T13:36:59.898Z,19.92
2016-11-19T13:38:10.308Z,20.08
2016-11-19T13:39:20.723Z,20.17
2016-11-19T13:40:31.140Z,20.19
2016-11-19T13:41:41.550Z,20.08
2016-11-19T13:42:52.190Z,20.17
2016-11-19T13:44:02.596Z,19.85
2016-11-19T13:45:13.007Z,19.86
2016-11-19T13:46:23.421Z,19.7
2016-11-19T13:47:33.844Z,19.45
2016-11-19T13:48:44.767Z,19.38
2016-11-19T13:49:55.178Z,19.43
2016-11-19T13:51:06.080Z,19.34
2016-11-19T13:52:16.489Z,19.32
2016-11-19T13:53:26.897Z,19.31
2016-11-19T13:54:37.308Z,19.32
2016-11-19T13:56:02.276Z,19.17
2016-11-19T13:57:12.683Z,19.13
2016-11-19T13:58:37.641Z,19.09
2016-11-19T13:59:48.076Z,18.97
2016-11-19T14:02:23.442Z,18.94
2016-11-19T14:03:33.850Z,18.84
2016-11-19T14:04:44.287Z,18.74
2016-11-19T14:05:54.693Z,18.89
2016-11-19T14:07:05.103Z,18.79
2016-11-19T14:08:15.524Z,18.78
2016-11-19T14:09:40.487Z,18.68
2016-11-19T14:10:50.895Z,18.68
2016-11-19T14:12:01.313Z,18.93
2016-11-19T14:13:11.722Z,18.96
2016-11-19T14:14:22.132Z,18.9
2016-11-19T14:15:32.552Z,18.87
2016-11-19T14:16:42.957Z,18.84
2016-11-19T14:17:53.359Z,18.84
2016-11-19T14:19:03.766Z,18.97
2016-11-19T14:20:28.733Z,19.13
2016-11-19T14:21:39.143Z,19.25
2016-11-19T14:22:50.047Z,19.25
2016-11-19T14:24:00.454Z,19.27
2016-11-19T14:25:10.863Z,19.12
2016-11-19T14:26:21.370Z,19.23
2016-11-19T14:27:31.780Z,19.13
2016-11-19T14:28:42.191Z,19.3
2016-11-19T14:29:52.629Z,19.52
2016-11-19T14:31:17.786Z,19.62
2016-11-19T14:32:28.195Z,19.68
2016-11-19T14:33:38.602Z,19.65
2016-11-19T14:34:49.011Z,19.79
2016-11-19T14:35:59.421Z,19.75
2016-11-19T14:37:09.933Z,19.62
2016-11-19T14:38:20.364Z,19.52
2016-11-19T14:39:30.779Z,19.34
2016-11-19T14:40:41.185Z,19.25
2016-11-19T14:41:51.590Z,19.2
2016-11-19T14:43:02.001Z,19.02
2016-11-19T14:44:12.416Z,19.05
2016-11-19T14:45:22.837Z,19.15
2016-11-19T14:46:47.800Z,19.17
2016-11-19T14:47:58.242Z,19.21
2016-11-19T14:49:08.652Z,19.2
2016-11-19T14:50:33.608Z,19.24
2016-11-19T14:51:59.122Z,19.16
2016-11-19T14:53:10.535Z,19.32
2016-11-19T14:55:46.393Z,19.7
2016-11-19T14:56:56.805Z,19.75
2016-11-19T14:58:07.217Z,19.67
2016-11-19T14:59:17.629Z,19.76
2016-11-19T15:00:28.037Z,19.85
2016-11-19T15:01:38.472Z,19.8
2016-11-19T15:03:03.430Z,19.82
2016-11-19T15:04:28.489Z,19.82
2016-11-19T15:05:38.901Z,19.85
2016-11-19T15:09:39.341Z,19.83
2016-11-19T15:10:49.779Z,19.68
2016-11-19T15:12:00.189Z,19.52
2016-11-19T15:13:10.598Z,19.42
2016-11-19T15:14:21.498Z,19.43
2016-11-19T15:15:31.904Z,19.57
2016-11-19T15:16:42.311Z,19.43
2016-11-19T15:17:52.717Z,19.43
2016-11-19T15:19:03.130Z,19.35
2016-11-19T15:20:13.542Z,19.4
2016-11-19T15:21:23.950Z,19.3
2016-11-19T15:22:34.396Z,19.27
2016-11-19T15:23:44.804Z,19.25
2016-11-19T15:24:55.418Z,19.21
2016-11-19T15:26:05.824Z,19.25
2016-11-19T15:27:16.726Z,19.31
2016-11-19T15:28:27.138Z,19.28
2016-11-19T15:29:37.553Z,19.3
2016-11-19T15:30:48.058Z,19.45
2016-11-19T15:31:58.474Z,19.55
2016-11-19T15:33:08.886Z,19.65
2016-11-19T15:34:19.243Z,19.7
2016-11-19T15:35:29.562Z,19.62
2016-11-19T15:36:54.574Z,19.7
2016-11-19T15:38:04.887Z,19.61
2016-11-19T15:40:40.093Z,19.35
2016-11-19T15:41:50.411Z,19.4
2016-11-19T15:43:00.759Z,19.35
2016-11-19T15:44:11.078Z,19.4
2016-11-19T15:45:21.392Z,19.6
2016-11-19T15:46:31.709Z,19.57